createdAt,value
2022-08-30T00:03:01.016Z,98392.56
2022-08-30T00:06:13.504Z,98390.88
2022-08-30T00:09:19.126Z,98388.84
2022-08-30T00:12:24.884Z,98386.72
2022-08-30T00:15:31.863Z,98403.19
2022-08-30T00:18:39.007Z,98393.72
2022-08-30T00:21:50.126Z,98394.16
2022-08-30T00:24:55.766Z,98401.16
2022-08-30T00:28:01.358Z,98401.38
2022-08-30T00:31:08.933Z,98397.66
2022-08-30T00:34:24.903Z,98398.88
2022-08-30T00:37:33.298Z,98395.78
2022-08-30T00:40:41.749Z,98397.44
2022-08-30T00:43:49.341Z,98403.00
2022-08-30T00:46:54.969Z,98406.91
2022-08-30T00:50:01.083Z,98404.38
2022-08-30T00:53:16.268Z,98403.34
2022-08-30T00:56:22.571Z,98398.19
2022-08-30T00:59:34.735Z,98395.94
2022-08-30T01:02:40.717Z,98402.94
2022-08-30T01:05:47.495Z,98391.56
2022-08-30T01:08:55.815Z,98399.44
2022-08-30T01:12:01.633Z,98397.75
2022-08-30T01:15:09.320Z,98392.31
2022-08-30T01:18:20.863Z,98384.91
2022-08-30T01:21:42.977Z,98388.19
2022-08-30T01:24:56.703Z,98385.50
2022-08-30T01:28:10.440Z,98382.41
2022-08-30T01:31:16.114Z,98372.91
2022-08-30T01:34:25.527Z,98381.38
2022-08-30T01:37:37.514Z,98385.72
2022-08-30T01:40:46.024Z,98389.41
2022-08-30T01:43:53.673Z,98390.25
2022-08-30T01:47:03.824Z,98388.97
2022-08-30T01:50:15.771Z,98387.34
2022-08-30T01:53:21.297Z,98386.31
2022-08-30T01:56:33.290Z,98389.19
2022-08-30T01:59:40.407Z,98392.69
2022-08-30T02:02:46.204Z,98389.63
2022-08-30T02:05:52.119Z,98395.38
2022-08-30T02:08:58.139Z,98387.69
2022-08-30T02:12:08.849Z,98387.06
2022-08-30T02:15:14.444Z,98381.94
2022-08-30T02:18:20.079Z,98378.66
2022-08-30T02:21:27.808Z,98368.34
2022-08-30T02:24:33.733Z,98376.19
2022-08-30T02:27:42.223Z,98378.25
2022-08-30T02:30:51.122Z,98376.41
2022-08-30T02:33:58.399Z,98380.47
2022-08-30T02:37:04.880Z,98382.75
2022-08-30T02:40:12.990Z,98382.31
2022-08-30T02:43:23.017Z,98377.97
2022-08-30T02:46:33.466Z,98380.25
2022-08-30T02:49:40.640Z,98381.53
2022-08-30T02:52:48.166Z,98375.75
2022-08-30T02:55:54.088Z,98374.41
2022-08-30T02:59:02.852Z,98381.72
2022-08-30T03:02:08.543Z,98391.78
2022-08-30T03:05:17.828Z,98383.84
2022-08-30T03:08:28.707Z,98384.56
2022-08-30T03:11:35.601Z,98386.81
2022-08-30T03:14:43.823Z,98391.50
2022-08-30T03:17:58.729Z,98380.28
2022-08-30T03:21:04.495Z,98382.44
2022-08-30T03:24:17.208Z,98383.72
2022-08-30T03:27:23.350Z,98380.38
2022-08-30T03:30:32.302Z,98380.81
2022-08-30T03:33:46.395Z,98387.25
2022-08-30T03:36:52.982Z,98390.00
2022-08-30T03:39:59.686Z,98388.19
2022-08-30T03:43:25.613Z,98392.28
2022-08-30T03:46:37.217Z,98395.00
2022-08-30T03:49:48.026Z,98394.06
2022-08-30T03:52:54.075Z,98400.75
2022-08-30T03:55:59.668Z,98405.97
2022-08-30T03:59:06.282Z,98399.78
2022-08-30T04:02:14.762Z,98403.28
2022-08-30T04:05:20.717Z,98407.41
2022-08-30T04:08:27.208Z,98400.47
2022-08-30T04:11:32.920Z,98409.19
2022-08-30T04:14:38.543Z,98400.78
2022-08-30T04:17:47.080Z,98414.66
2022-08-30T04:20:54.269Z,98412.22
2022-08-30T04:24:00.306Z,98415.13
2022-08-30T04:27:06.144Z,98417.59
2022-08-30T04:30:20.472Z,98417.19
2022-08-30T04:33:28.715Z,98421.41
2022-08-30T04:36:34.378Z,98424.09
2022-08-30T04:39:40.060Z,98433.44
2022-08-30T04:42:46.643Z,98428.53
2022-08-30T04:45:53.865Z,98432.59
2022-08-30T04:49:02.277Z,98431.44
2022-08-30T04:52:09.379Z,98442.88
2022-08-30T04:55:20.228Z,98440.22
2022-08-30T04:58:29.177Z,98441.50
2022-08-30T05:01:45.036Z,98446.91
2022-08-30T05:05:06.568Z,98446.69
2022-08-30T05:08:21.062Z,98451.25
2022-08-30T05:11:31.856Z,98452.50
2022-08-30T05:14:38.600Z,98452.19
2022-08-30T05:17:45.273Z,98450.41
2022-08-30T05:20:53.834Z,98445.41
2022-08-30T05:24:02.864Z,98453.25
2022-08-30T05:27:10.771Z,98451.34
2022-08-30T05:30:18.545Z,98449.81
2022-08-30T05:33:24.438Z,98451.03
2022-08-30T05:36:37.104Z,98451.13
2022-08-30T05:39:46.935Z,98457.56
2022-08-30T05:42:57.468Z,98456.72
2022-08-30T05:46:03.848Z,98460.88
2022-08-30T05:49:11.136Z,98457.94
2022-08-30T05:52:20.186Z,98459.59
2022-08-30T05:55:27.418Z,98464.38
2022-08-30T05:58:33.642Z,98465.09
2022-08-30T06:01:43.458Z,98460.44
2022-08-30T06:04:49.250Z,98455.06
2022-08-30T06:07:57.929Z,98472.25
2022-08-30T06:11:03.625Z,98465.28
2022-08-30T06:14:10.313Z,98465.47
2022-08-30T06:17:15.972Z,98471.97
2022-08-30T06:20:21.832Z,98475.91
2022-08-30T06:23:30.836Z,98475.69
2022-08-30T06:26:43.771Z,98474.97
2022-08-30T06:29:49.559Z,98481.53
2022-08-30T06:32:55.540Z,98475.41
2022-08-30T06:36:06.370Z,98481.53
2022-08-30T06:39:14.737Z,98485.16
2022-08-30T06:42:20.692Z,98477.78
2022-08-30T06:45:26.505Z,98479.88
2022-08-30T06:48:34.811Z,98483.94
2022-08-30T06:51:43.301Z,98489.84
2022-08-30T06:54:52.610Z,98490.16
2022-08-30T06:57:58.445Z,98487.16
2022-08-30T07:01:04.347Z,98491.97
2022-08-30T07:04:12.938Z,98495.94
2022-08-30T07:07:20.621Z,98493.34
2022-08-30T07:10:31.616Z,98507.78
2022-08-30T07:13:38.465Z,98504.88
2022-08-30T07:16:52.626Z,98509.50
2022-08-30T07:19:56.286Z,98499.28
2022-08-30T07:23:05.138Z,98486.63
2022-08-30T07:26:18.204Z,98502.44
2022-08-30T07:29:24.311Z,98501.88
2022-08-30T07:32:30.190Z,98498.66
2022-08-30T07:35:36.012Z,98496.19
2022-08-30T07:38:42.047Z,98490.09
2022-08-30T07:41:51.072Z,98490.97
2022-08-30T07:44:57.050Z,98495.38
2022-08-30T07:48:08.635Z,98496.63
2022-08-30T07:51:19.034Z,98497.25
2022-08-30T07:54:24.710Z,98501.59
2022-08-30T07:57:35.685Z,98501.91
2022-08-30T08:00:41.494Z,98507.31
2022-08-30T08:03:50.560Z,98509.47
2022-08-30T08:06:59.362Z,98520.63
2022-08-30T08:10:06.878Z,98520.19
2022-08-30T08:13:15.623Z,98513.13
2022-08-30T08:16:22.522Z,98512.03
2022-08-30T08:19:31.152Z,98516.44
2022-08-30T08:22:40.017Z,98526.75
2022-08-30T08:25:46.199Z,98521.50
2022-08-30T08:28:54.719Z,98523.50
2022-08-30T08:32:00.777Z,98517.00
2022-08-30T08:35:18.237Z,98518.03
2022-08-30T08:38:23.904Z,98522.47
2022-08-30T08:41:53.966Z,98520.25
2022-08-30T08:45:11.749Z,98525.13
2022-08-30T08:48:58.505Z,98521.28
2022-08-30T08:52:15.386Z,98519.28
2022-08-30T08:55:27.198Z,98526.63
2022-08-30T08:58:37.867Z,98520.31
2022-08-30T09:01:51.583Z,98519.66
2022-08-30T09:05:04.206Z,98527.19
2022-08-30T09:08:34.431Z,98519.09
2022-08-30T09:11:46.174Z,98519.78
2022-08-30T09:14:58.328Z,98512.16
2022-08-30T09:18:19.312Z,98516.47
2022-08-30T09:21:31.603Z,98520.25
2022-08-30T09:24:46.235Z,98512.22
2022-08-30T09:27:56.201Z,98519.03
2022-08-30T09:31:12.380Z,98515.25
2022-08-30T09:34:36.877Z,98514.97
2022-08-30T09:37:52.131Z,98515.84
2022-08-30T09:41:05.359Z,98523.09
2022-08-30T09:44:18.885Z,98519.28
2022-08-30T09:47:42.219Z,98510.81
2022-08-30T09:51:20.784Z,98514.22
2022-08-30T09:54:38.722Z,98508.44
2022-08-30T09:58:04.011Z,98509.72
2022-08-30T10:01:26.475Z,98502.34
2022-08-30T10:04:56.556Z,98502.50
2022-08-30T10:08:25.294Z,98493.59
2022-08-30T10:11:46.439Z,98493.38
2022-08-30T10:15:15.315Z,98484.94
2022-08-30T10:18:46.067Z,98493.78
2022-08-30T10:22:15.613Z,98496.59
2022-08-30T10:25:33.571Z,98492.88
2022-08-30T10:28:50.251Z,98491.25
2022-08-30T10:32:17.211Z,98488.06
2022-08-30T10:35:29.057Z,98491.91
2022-08-30T10:38:42.385Z,98491.03
2022-08-30T10:42:01.702Z,98487.66
2022-08-30T10:45:26.500Z,98482.34
2022-08-30T10:48:45.477Z,98483.00
2022-08-30T10:52:17.291Z,98480.81
2022-08-30T10:55:31.930Z,98470.66
2022-08-30T10:58:45.118Z,98480.00
2022-08-30T11:02:46.490Z,98473.16
2022-08-30T11:06:21.070Z,98464.56
2022-08-30T11:10:07.829Z,98472.31
2022-08-30T11:13:24.183Z,98466.50
2022-08-30T11:16:45.003Z,98466.53
2022-08-30T11:19:52.290Z,98463.28
2022-08-30T11:23:36.429Z,98472.25
2022-08-30T11:27:05.686Z,98455.28
2022-08-30T11:30:50.681Z,98455.38
2022-08-30T11:34:01.918Z,98448.81
2022-08-30T11:37:34.031Z,98447.97
2022-08-30T11:40:53.459Z,98450.31
2022-08-30T11:44:20.527Z,98447.03
2022-08-30T11:48:00.534Z,98446.69
2022-08-30T11:55:56.280Z,98440.09
2022-08-30T11:59:14.697Z,98439.22
2022-08-30T12:02:55.553Z,98437.69
2022-08-30T12:06:05.735Z,98430.88
2022-08-30T12:10:12.407Z,98427.88
2022-08-30T12:13:55.846Z,98420.56
2022-08-30T12:17:17.929Z,98421.09
2022-08-30T12:20:30.976Z,98416.50
2022-08-30T12:23:49.837Z,98418.34
2022-08-30T12:26:58.517Z,98412.81
2022-08-30T12:30:11.543Z,98413.22
2022-08-30T12:33:40.132Z,98407.16
2022-08-30T12:37:00.390Z,98396.28
2022-08-30T12:40:13.648Z,98397.34
2022-08-30T12:43:39.050Z,98396.63
2022-08-30T12:46:57.237Z,98397.69
2022-08-30T12:50:07.935Z,98388.53
2022-08-30T12:53:30.394Z,98397.25
2022-08-30T12:56:56.686Z,98396.25
2022-08-30T13:00:07.757Z,98389.28
2022-08-30T13:03:36.953Z,98387.63
2022-08-30T13:06:52.648Z,98379.50
2022-08-30T13:10:20.000Z,98378.53
2022-08-30T13:13:44.558Z,98371.56
2022-08-30T13:16:53.309Z,98373.03
2022-08-30T13:20:06.505Z,98375.56
2022-08-30T13:23:14.139Z,98367.72
2022-08-30T13:26:23.371Z,98368.88
2022-08-30T13:29:32.167Z,98359.53
2022-08-30T13:32:40.285Z,98363.41
2022-08-30T13:35:48.401Z,98356.38
2022-08-30T13:38:54.900Z,98362.47
2022-08-30T13:45:42.543Z,98360.28
2022-08-30T13:48:52.449Z,98356.72
2022-08-30T13:52:19.300Z,98357.06
2022-08-30T13:55:24.580Z,98354.81
2022-08-30T13:58:30.243Z,98348.75
2022-08-30T14:05:47.148Z,98343.88
2022-08-30T14:08:48.289Z,98343.94
2022-08-30T14:11:56.037Z,98344.28
2022-08-30T14:15:03.156Z,98344.16
2022-08-30T14:18:12.555Z,98330.53
2022-08-30T14:21:24.789Z,98343.03
2022-08-30T14:24:30.793Z,98332.41
2022-08-30T14:27:36.665Z,98332.84
2022-08-30T14:30:42.411Z,98332.59
2022-08-30T14:33:48.530Z,98320.56
2022-08-30T14:36:57.308Z,98326.84
2022-08-30T14:40:04.974Z,98322.53
2022-08-30T14:43:11.757Z,98318.97
2022-08-30T14:46:22.255Z,98320.53
2022-08-30T14:49:28.917Z,98319.13
2022-08-30T14:52:38.044Z,98320.75
2022-08-30T14:55:51.100Z,98322.41
2022-08-30T14:59:00.782Z,98313.97
2022-08-30T15:02:06.587Z,98314.00
2022-08-30T15:05:12.764Z,98318.63
2022-08-30T15:08:22.182Z,98317.47
2022-08-30T15:11:29.578Z,98316.72
2022-08-30T15:14:36.253Z,98312.94
2022-08-30T15:17:42.308Z,98305.25
2022-08-30T15:20:49.717Z,98309.94
2022-08-30T15:23:58.347Z,98309.44
2022-08-30T15:27:05.025Z,98309.41
2022-08-30T15:30:15.577Z,98313.06
2022-08-30T15:33:25.375Z,98312.50
2022-08-30T15:36:33.242Z,98312.09
2022-08-30T15:39:42.764Z,98311.81
2022-08-30T15:42:48.324Z,98312.22
2022-08-30T15:45:54.007Z,98297.75
2022-08-30T15:49:07.047Z,98308.69
2022-08-30T15:52:12.697Z,98302.03
2022-08-30T15:55:23.065Z,98299.28
2022-08-30T15:58:28.871Z,98311.00
2022-08-30T16:01:35.796Z,98309.59
2022-08-30T16:04:41.604Z,98296.53
2022-08-30T16:07:48.404Z,98297.31
2022-08-30T16:10:59.315Z,98298.19
2022-08-30T16:14:08.893Z,98290.59
2022-08-30T16:17:14.688Z,98283.31
2022-08-30T16:20:20.705Z,98281.66
2022-08-30T16:23:29.527Z,98288.31
2022-08-30T16:26:41.827Z,98296.72
2022-08-30T16:29:47.573Z,98294.69
2022-08-30T16:32:55.882Z,98289.50
2022-08-30T16:36:01.897Z,98291.91
2022-08-30T16:39:14.063Z,98293.25
2022-08-30T16:42:26.904Z,98292.06
2022-08-30T16:45:34.735Z,98291.44
2022-08-30T16:48:41.664Z,98296.66
2022-08-30T16:51:50.110Z,98291.09
2022-08-30T16:54:56.374Z,98297.91
2022-08-30T16:58:06.800Z,98296.47
2022-08-30T17:01:13.715Z,98308.13
2022-08-30T17:04:21.016Z,98310.16
2022-08-30T17:07:29.781Z,98308.50
2022-08-30T17:10:37.138Z,98310.97
2022-08-30T17:13:50.884Z,98308.13
2022-08-30T17:16:56.664Z,98316.31
2022-08-30T17:20:07.596Z,98312.47
2022-08-30T17:23:14.769Z,98325.59
2022-08-30T17:26:21.595Z,98324.53
2022-08-30T17:29:31.321Z,98326.53
2022-08-30T17:32:37.229Z,98332.50
2022-08-30T17:35:42.874Z,98331.81
2022-08-30T17:38:52.166Z,98335.06
2022-08-30T17:41:59.212Z,98338.66
2022-08-30T17:45:19.416Z,98339.84
2022-08-30T17:48:29.334Z,98346.59
2022-08-30T17:51:37.116Z,98350.88
2022-08-30T17:54:46.425Z,98354.50
2022-08-30T17:57:52.016Z,98367.13
2022-08-30T18:01:11.635Z,98364.69
2022-08-30T18:04:19.779Z,98370.34
2022-08-30T18:07:41.430Z,98362.94
2022-08-30T18:10:51.037Z,98369.72
2022-08-30T18:14:05.062Z,98373.38
2022-08-30T18:17:13.557Z,98374.81
2022-08-30T18:20:26.526Z,98375.75
2022-08-30T18:23:35.541Z,98371.97
2022-08-30T18:26:42.960Z,98379.88
2022-08-30T18:29:51.197Z,98382.31
2022-08-30T18:32:59.636Z,98385.38
2022-08-30T18:36:07.103Z,98385.63
2022-08-30T18:39:12.857Z,98386.66
2022-08-30T18:42:18.792Z,98388.41
2022-08-30T18:45:26.664Z,98389.59
2022-08-30T18:48:36.680Z,98395.94
2022-08-30T18:51:42.727Z,98394.38
2022-08-30T18:54:52.614Z,98393.09
2022-08-30T18:57:59.572Z,98391.03
2022-08-30T19:01:23.142Z,98386.34
2022-08-30T19:04:35.449Z,98396.09
2022-08-30T19:07:41.776Z,98398.06
2022-08-30T19:10:48.044Z,98389.69
2022-08-30T19:13:54.068Z,98393.06
2022-08-30T19:17:07.105Z,98394.69
2022-08-30T19:20:20.779Z,98394.53
2022-08-30T19:23:30.935Z,98398.75
2022-08-30T19:26:42.819Z,98391.56
2022-08-30T19:29:53.066Z,98385.06
2022-08-30T19:32:59.582Z,98382.59
2022-08-30T19:36:20.610Z,98388.06
2022-08-30T19:39:28.287Z,98389.19
2022-08-30T19:42:34.223Z,98399.25
2022-08-30T19:45:43.423Z,98396.00
2022-08-30T19:48:49.144Z,98406.41
2022-08-30T19:51:57.527Z,98403.25
2022-08-30T19:55:05.595Z,98397.63
2022-08-30T19:58:26.785Z,98404.22
2022-08-30T20:01:39.075Z,98397.56
2022-08-30T20:04:44.707Z,98389.94
2022-08-30T20:07:58.492Z,98391.84
2022-08-30T20:11:04.148Z,98393.19
2022-08-30T20:14:13.560Z,98394.09
2022-08-30T20:17:19.534Z,98394.97
2022-08-30T20:20:31.316Z,98396.91
2022-08-30T20:23:43.037Z,98396.13
2022-08-30T20:26:48.724Z,98394.28
2022-08-30T20:29:54.495Z,98387.31
2022-08-30T20:33:08.573Z,98389.84
2022-08-30T20:36:14.869Z,98388.41
2022-08-30T20:39:23.407Z,98385.97
2022-08-30T20:42:29.292Z,98380.03
2022-08-30T20:45:37.330Z,98387.44
2022-08-30T20:48:43.839Z,98384.75
2022-08-30T20:51:54.475Z,98382.25
2022-08-30T20:55:03.163Z,98378.72
2022-08-30T20:58:08.825Z,98382.69
2022-08-30T21:01:17.282Z,98389.78
2022-08-30T21:04:26.439Z,98394.19
2022-08-30T21:07:32.040Z,98394.19
2022-08-30T21:10:40.679Z,98396.75
2022-08-30T21:13:52.305Z,98392.22
2022-08-30T21:16:59.047Z,98393.88
2022-08-30T21:20:05.498Z,98396.84
2022-08-30T21:23:18.859Z,98390.84
2022-08-30T21:26:27.765Z,98401.03
2022-08-30T21:29:34.574Z,98401.03
2022-08-30T21:32:40.110Z,98404.34
2022-08-30T21:35:58.425Z,98398.34
2022-08-30T21:39:04.084Z,98401.47
2022-08-30T21:42:14.719Z,98400.84
2022-08-30T21:45:25.275Z,98395.91
2022-08-30T21:48:32.726Z,98390.53
2022-08-30T21:51:49.206Z,98393.63
2022-08-30T21:54:54.841Z,98391.13
2022-08-30T21:58:04.106Z,98387.06
2022-08-30T22:01:17.490Z,98388.97
2022-08-30T22:04:26.424Z,98388.78
2022-08-30T22:07:33.340Z,98383.41
2022-08-30T22:10:39.505Z,98385.91
2022-08-30T22:13:51.858Z,98374.72
2022-08-30T22:16:59.046Z,98376.41
2022-08-30T22:20:05.277Z,98360.13
2022-08-30T22:23:11.539Z,98363.22
2022-08-30T22:26:24.738Z,98364.47
2022-08-30T22:29:33.919Z,98361.59
2022-08-30T22:32:41.205Z,98353.31
2022-08-30T22:35:48.604Z,98360.13
2022-08-30T22:38:57.240Z,98370.47
2022-08-30T22:42:03.446Z,98376.88
2022-08-30T22:45:14.359Z,98378.75
2022-08-30T22:48:20.979Z,98385.38
2022-08-30T22:51:27.245Z,98386.81
2022-08-30T22:54:33.504Z,98392.59
2022-08-30T22:57:40.483Z,98386.81
2022-08-30T23:00:54.783Z,98390.72
2022-08-30T23:04:03.340Z,98380.00
2022-08-30T23:07:09.460Z,98377.50
2022-08-30T23:10:19.965Z,98377.09
2022-08-30T23:13:28.691Z,98382.06
2022-08-30T23:16:39.390Z,98372.75
2022-08-30T23:19:45.115Z,98381.25
2022-08-30T23:22:58.213Z,98384.53
2022-08-30T23:26:17.385Z,98390.91
2022-08-30T23:29:35.585Z,98390.50
2022-08-30T23:32:56.257Z,98396.28
2022-08-30T23:36:14.381Z,98393.00
2022-08-30T23:39:32.346Z,98390.94
2022-08-30T23:42:50.339Z,98396.75
2022-08-30T23:46:08.582Z,98390.31
2022-08-30T23:49:42.117Z,98393.41
2022-08-30T23:53:04.231Z,98397.72
2022-08-30T23:56:25.735Z,98392.78
2022-08-30T23:59:43.773Z,98383.28
